Long Beach, New York
Current Conditions -  °F | °C
As of 7:51 AM on Tuesday 21 Oct 2014 (Local Time) from KJFK Reporting Station
Broken Clouds Broken Clouds  
Wind Chill: 54°   Ceiling: 12000
Heat Index: 54°   Visibility: 10mi
Dew Point: 47°   Wind: 5mph
Humidity: 77%   Direction: 60°ENE
Pressure: 29.91"   Gusts: NA
Location:  40.59°N, 73.67°W
Report Text: KJFK 211151Z 06004KT 10SM FEW050 BKN120 BKN250 12/08 A2991 RMK AO2 SLP127 T01220083 10139 20117 58001
Loading
Personal Weather Stations






























Interactive Weather Map
Tropical Storm Tracking
New forecast layout! Learn more

10-Day Weather Forecast

Advertisements
Track Severe Weather on mobile